sensor_id;sensor_type;location;lat;lon;timestamp;P1;durP1;ratioP1;P2;durP2;ratioP2
9854;SDS011;4966;48.112;9.282;2023-05-20T00:00:09;4.68;;;2.15;;
9854;SDS011;4966;48.112;9.282;2023-05-20T00:02:35;5.40;;;2.20;;
9854;SDS011;4966;48.112;9.282;2023-05-20T00:05:01;4.47;;;2.10;;
9854;SDS011;4966;48.112;9.282;2023-05-20T00:07:26;6.78;;;2.20;;
9854;SDS011;4966;48.112;9.282;2023-05-20T00:09:52;4.57;;;2.30;;
9854;SDS011;4966;48.112;9.282;2023-05-20T00:12:17;4.70;;;2.42;;
9854;SDS011;4966;48.112;9.282;2023-05-20T00:14:42;4.68;;;2.10;;
9854;SDS011;4966;48.112;9.282;2023-05-20T00:17:08;3.75;;;1.80;;
9854;SDS011;4966;48.112;9.282;2023-05-20T00:19:33;5.10;;;2.30;;
9854;SDS011;4966;48.112;9.282;2023-05-20T00:21:59;6.28;;;2.30;;
9854;SDS011;4966;48.112;9.282;2023-05-20T00:24:24;4.53;;;2.40;;
9854;SDS011;4966;48.112;9.282;2023-05-20T00:26:49;3.63;;;2.10;;
9854;SDS011;4966;48.112;9.282;2023-05-20T00:29:15;3.65;;;2.25;;
9854;SDS011;4966;48.112;9.282;2023-05-20T00:31:40;6.35;;;2.20;;
9854;SDS011;4966;48.112;9.282;2023-05-20T00:34:06;4.18;;;2.20;;
9854;SDS011;4966;48.112;9.282;2023-05-20T00:36:32;4.22;;;2.60;;
9854;SDS011;4966;48.112;9.282;2023-05-20T00:38:57;4.88;;;2.50;;
9854;SDS011;4966;48.112;9.282;2023-05-20T00:41:23;3.67;;;2.00;;
9854;SDS011;4966;48.112;9.282;2023-05-20T00:43:51;3.35;;;2.10;;
9854;SDS011;4966;48.112;9.282;2023-05-20T00:46:18;4.93;;;2.30;;
9854;SDS011;4966;48.112;9.282;2023-05-20T00:48:43;5.30;;;1.90;;
9854;SDS011;4966;48.112;9.282;2023-05-20T00:51:09;4.43;;;1.92;;
9854;SDS011;4966;48.112;9.282;2023-05-20T00:53:36;5.68;;;2.28;;
9854;SDS011;4966;48.112;9.282;2023-05-20T00:56:03;3.20;;;1.90;;
9854;SDS011;4966;48.112;9.282;2023-05-20T00:58:29;4.13;;;2.08;;
9854;SDS011;4966;48.112;9.282;2023-05-20T01:00:55;4.20;;;2.47;;
9854;SDS011;4966;48.112;9.282;2023-05-20T01:03:20;4.72;;;2.33;;
9854;SDS011;4966;48.112;9.282;2023-05-20T01:05:46;4.68;;;2.50;;
9854;SDS011;4966;48.112;9.282;2023-05-20T01:08:11;3.38;;;2.20;;
9854;SDS011;4966;48.112;9.282;2023-05-20T01:10:38;3.30;;;2.13;;
9854;SDS011;4966;48.112;9.282;2023-05-20T01:13:10;5.05;;;2.60;;
9854;SDS011;4966;48.112;9.282;2023-05-20T01:15:40;6.10;;;2.35;;
9854;SDS011;4966;48.112;9.282;2023-05-20T01:18:09;5.15;;;2.70;;
9854;SDS011;4966;48.112;9.282;2023-05-20T01:20:42;6.53;;;2.30;;
9854;SDS011;4966;48.112;9.282;2023-05-20T01:23:11;4.18;;;2.08;;
9854;SDS011;4966;48.112;9.282;2023-05-20T01:25:36;8.48;;;2.72;;
9854;SDS011;4966;48.112;9.282;2023-05-20T01:28:02;5.00;;;2.60;;
9854;SDS011;4966;48.112;9.282;2023-05-20T01:30:29;3.95;;;2.22;;
9854;SDS011;4966;48.112;9.282;2023-05-20T01:33:00;3.13;;;1.98;;
9854;SDS011;4966;48.112;9.282;2023-05-20T01:35:31;3.55;;;2.00;;
9854;SDS011;4966;48.112;9.282;2023-05-20T01:37:57;4.13;;;2.05;;
9854;SDS011;4966;48.112;9.282;2023-05-20T01:40:24;4.30;;;2.53;;
9854;SDS011;4966;48.112;9.282;2023-05-20T01:42:51;4.90;;;2.33;;
9854;SDS011;4966;48.112;9.282;2023-05-20T01:45:19;3.65;;;2.22;;
9854;SDS011;4966;48.112;9.282;2023-05-20T01:47:45;4.00;;;2.50;;
9854;SDS011;4966;48.112;9.282;2023-05-20T01:50:10;4.63;;;2.28;;
9854;SDS011;4966;48.112;9.282;2023-05-20T01:52:36;3.65;;;2.20;;
9854;SDS011;4966;48.112;9.282;2023-05-20T01:55:01;3.75;;;2.03;;
9854;SDS011;4966;48.112;9.282;2023-05-20T01:57:27;3.67;;;2.22;;
9854;SDS011;4966;48.112;9.282;2023-05-20T01:59:52;3.63;;;2.22;;
9854;SDS011;4966;48.112;9.282;2023-05-20T02:02:17;4.05;;;2.47;;
9854;SDS011;4966;48.112;9.282;2023-05-20T02:04:47;3.90;;;2.40;;
9854;SDS011;4966;48.112;9.282;2023-05-20T02:07:15;4.60;;;2.63;;
9854;SDS011;4966;48.112;9.282;2023-05-20T02:09:42;4.68;;;2.25;;
9854;SDS011;4966;48.112;9.282;2023-05-20T02:12:08;5.72;;;2.47;;
9854;SDS011;4966;48.112;9.282;2023-05-20T02:14:40;3.72;;;2.25;;
9854;SDS011;4966;48.112;9.282;2023-05-20T02:17:05;3.97;;;2.35;;
9854;SDS011;4966;48.112;9.282;2023-05-20T02:19:30;3.95;;;2.30;;
9854;SDS011;4966;48.112;9.282;2023-05-20T02:21:56;7.95;;;2.67;;
9854;SDS011;4966;48.112;9.282;2023-05-20T02:24:21;5.03;;;2.42;;
9854;SDS011;4966;48.112;9.282;2023-05-20T02:26:46;4.25;;;2.38;;
9854;SDS011;4966;48.112;9.282;2023-05-20T02:29:15;3.97;;;2.25;;
9854;SDS011;4966;48.112;9.282;2023-05-20T02:31:40;5.72;;;2.20;;
9854;SDS011;4966;48.112;9.282;2023-05-20T02:34:05;4.68;;;2.22;;
9854;SDS011;4966;48.112;9.282;2023-05-20T02:36:31;7.03;;;3.13;;
9854;SDS011;4966;48.112;9.282;2023-05-20T02:38:56;5.68;;;3.15;;
9854;SDS011;4966;48.112;9.282;2023-05-20T02:41:21;3.70;;;2.40;;
9854;SDS011;4966;48.112;9.282;2023-05-20T02:43:47;4.40;;;2.65;;
9854;SDS011;4966;48.112;9.282;2023-05-20T02:46:12;4.15;;;2.40;;
9854;SDS011;4966;48.112;9.282;2023-05-20T02:48:38;4.72;;;2.38;;
9854;SDS011;4966;48.112;9.282;2023-05-20T02:51:04;6.13;;;2.88;;
9854;SDS011;4966;48.112;9.282;2023-05-20T02:53:29;6.68;;;2.70;;
9854;SDS011;4966;48.112;9.282;2023-05-20T02:55:56;5.10;;;2.85;;
9854;SDS011;4966;48.112;9.282;2023-05-20T02:58:21;4.90;;;2.88;;
9854;SDS011;4966;48.112;9.282;2023-05-20T03:00:50;4.63;;;2.38;;
9854;SDS011;4966;48.112;9.282;2023-05-20T03:03:16;5.38;;;2.80;;
9854;SDS011;4966;48.112;9.282;2023-05-20T03:05:41;5.88;;;2.80;;
9854;SDS011;4966;48.112;9.282;2023-05-20T03:08:10;5.85;;;3.17;;
9854;SDS011;4966;48.112;9.282;2023-05-20T03:10:39;4.18;;;2.72;;
9854;SDS011;4966;48.112;9.282;2023-05-20T03:13:05;4.55;;;2.60;;
9854;SDS011;4966;48.112;9.282;2023-05-20T03:15:35;5.18;;;2.70;;
9854;SDS011;4966;48.112;9.282;2023-05-20T03:18:04;6.15;;;3.17;;
9854;SDS011;4966;48.112;9.282;2023-05-20T03:20:30;4.53;;;2.78;;
9854;SDS011;4966;48.112;9.282;2023-05-20T03:22:56;4.05;;;2.50;;
9854;SDS011;4966;48.112;9.282;2023-05-20T03:25:23;6.88;;;3.10;;
9854;SDS011;4966;48.112;9.282;2023-05-20T03:27:48;5.07;;;3.05;;
9854;SDS011;4966;48.112;9.282;2023-05-20T03:30:13;4.90;;;3.13;;
9854;SDS011;4966;48.112;9.282;2023-05-20T03:32:39;5.72;;;3.10;;
9854;SDS011;4966;48.112;9.282;2023-05-20T03:35:05;7.28;;;3.47;;
9854;SDS011;4966;48.112;9.282;2023-05-20T03:37:31;6.18;;;3.50;;
9854;SDS011;4966;48.112;9.282;2023-05-20T03:39:56;6.97;;;3.30;;
9854;SDS011;4966;48.112;9.282;2023-05-20T03:42:21;6.57;;;3.63;;
9854;SDS011;4966;48.112;9.282;2023-05-20T03:44:47;5.70;;;3.08;;
9854;SDS011;4966;48.112;9.282;2023-05-20T03:47:12;7.00;;;3.30;;
9854;SDS011;4966;48.112;9.282;2023-05-20T03:49:37;5.30;;;3.05;;
9854;SDS011;4966;48.112;9.282;2023-05-20T03:52:05;5.35;;;2.90;;
9854;SDS011;4966;48.112;9.282;2023-05-20T03:54:30;5.53;;;3.10;;
9854;SDS011;4966;48.112;9.282;2023-05-20T03:56:56;7.03;;;2.83;;
9854;SDS011;4966;48.112;9.282;2023-05-20T03:59:21;6.03;;;2.67;;
9854;SDS011;4966;48.112;9.282;2023-05-20T04:01:46;6.68;;;3.30;;
9854;SDS011;4966;48.112;9.282;2023-05-20T04:04:12;5.30;;;3.25;;
9854;SDS011;4966;48.112;9.282;2023-05-20T04:06:37;7.63;;;3.25;;
9854;SDS011;4966;48.112;9.282;2023-05-20T04:09:02;5.93;;;3.35;;
9854;SDS011;4966;48.112;9.282;2023-05-20T04:11:28;5.70;;;3.35;;
9854;SDS011;4966;48.112;9.282;2023-05-20T04:13:53;6.95;;;3.50;;
9854;SDS011;4966;48.112;9.282;2023-05-20T04:16:19;6.78;;;3.63;;
9854;SDS011;4966;48.112;9.282;2023-05-20T04:18:44;6.70;;;3.88;;
9854;SDS011;4966;48.112;9.282;2023-05-20T04:21:12;6.20;;;3.60;;
9854;SDS011;4966;48.112;9.282;2023-05-20T04:23:37;7.50;;;3.92;;
9854;SDS011;4966;48.112;9.282;2023-05-20T04:26:02;6.35;;;3.83;;
9854;SDS011;4966;48.112;9.282;2023-05-20T04:28:28;6.95;;;3.80;;
9854;SDS011;4966;48.112;9.282;2023-05-20T04:30:58;7.47;;;3.83;;
9854;SDS011;4966;48.112;9.282;2023-05-20T04:33:28;6.45;;;3.95;;
9854;SDS011;4966;48.112;9.282;2023-05-20T04:35:54;5.25;;;3.17;;
9854;SDS011;4966;48.112;9.282;2023-05-20T04:38:22;4.93;;;2.65;;
9854;SDS011;4966;48.112;9.282;2023-05-20T04:40:54;5.28;;;2.78;;
9854;SDS011;4966;48.112;9.282;2023-05-20T04:43:22;6.75;;;3.75;;
9854;SDS011;4966;48.112;9.282;2023-05-20T04:45:47;7.85;;;3.70;;
9854;SDS011;4966;48.112;9.282;2023-05-20T04:48:13;7.78;;;3.38;;
9854;SDS011;4966;48.112;9.282;2023-05-20T04:50:38;8.32;;;3.85;;
9854;SDS011;4966;48.112;9.282;2023-05-20T04:53:04;6.07;;;4.00;;
9854;SDS011;4966;48.112;9.282;2023-05-20T04:55:29;6.20;;;3.70;;
9854;SDS011;4966;48.112;9.282;2023-05-20T04:57:56;7.22;;;4.60;;
9854;SDS011;4966;48.112;9.282;2023-05-20T05:00:21;7.65;;;3.38;;
9854;SDS011;4966;48.112;9.282;2023-05-20T05:02:47;6.88;;;3.83;;
9854;SDS011;4966;48.112;9.282;2023-05-20T05:05:12;6.45;;;3.75;;
9854;SDS011;4966;48.112;9.282;2023-05-20T05:07:38;6.53;;;3.95;;
9854;SDS011;4966;48.112;9.282;2023-05-20T05:10:03;8.48;;;4.10;;
9854;SDS011;4966;48.112;9.282;2023-05-20T05:12:29;7.75;;;4.28;;
9854;SDS011;4966;48.112;9.282;2023-05-20T05:14:54;7.00;;;4.38;;
9854;SDS011;4966;48.112;9.282;2023-05-20T05:17:20;9.15;;;4.20;;
9854;SDS011;4966;48.112;9.282;2023-05-20T05:19:45;6.75;;;3.78;;
9854;SDS011;4966;48.112;9.282;2023-05-20T05:22:10;7.55;;;3.88;;
9854;SDS011;4966;48.112;9.282;2023-05-20T05:24:35;8.18;;;4.53;;
9854;SDS011;4966;48.112;9.282;2023-05-20T05:27:02;8.00;;;4.13;;
9854;SDS011;4966;48.112;9.282;2023-05-20T05:29:28;6.53;;;3.97;;
9854;SDS011;4966;48.112;9.282;2023-05-20T05:31:53;7.47;;;4.20;;
9854;SDS011;4966;48.112;9.282;2023-05-20T05:34:18;7.88;;;4.50;;
9854;SDS011;4966;48.112;9.282;2023-05-20T05:36:43;6.13;;;3.70;;
9854;SDS011;4966;48.112;9.282;2023-05-20T05:39:09;6.97;;;4.55;;
9854;SDS011;4966;48.112;9.282;2023-05-20T05:41:34;12.23;;;4.53;;
9854;SDS011;4966;48.112;9.282;2023-05-20T05:44:00;6.93;;;4.25;;
9854;SDS011;4966;48.112;9.282;2023-05-20T05:46:25;7.53;;;3.85;;
9854;SDS011;4966;48.112;9.282;2023-05-20T05:48:50;6.88;;;3.85;;
9854;SDS011;4966;48.112;9.282;2023-05-20T05:51:16;6.78;;;3.85;;
9854;SDS011;4966;48.112;9.282;2023-05-20T05:53:41;9.50;;;4.10;;
9854;SDS011;4966;48.112;9.282;2023-05-20T05:56:07;6.78;;;3.80;;
9854;SDS011;4966;48.112;9.282;2023-05-20T05:58:33;9.13;;;4.40;;
9854;SDS011;4966;48.112;9.282;2023-05-20T06:00:58;6.53;;;4.32;;
9854;SDS011;4966;48.112;9.282;2023-05-20T06:03:23;7.25;;;3.95;;
9854;SDS011;4966;48.112;9.282;2023-05-20T06:05:49;7.82;;;4.05;;
9854;SDS011;4966;48.112;9.282;2023-05-20T06:08:14;8.73;;;4.78;;
9854;SDS011;4966;48.112;9.282;2023-05-20T06:10:40;9.20;;;4.32;;
9854;SDS011;4966;48.112;9.282;2023-05-20T06:13:05;7.15;;;4.43;;
9854;SDS011;4966;48.112;9.282;2023-05-20T06:15:31;8.48;;;4.50;;
9854;SDS011;4966;48.112;9.282;2023-05-20T06:17:56;7.15;;;4.28;;
9854;SDS011;4966;48.112;9.282;2023-05-20T06:20:21;8.32;;;4.85;;
9854;SDS011;4966;48.112;9.282;2023-05-20T06:22:47;9.10;;;4.57;;
9854;SDS011;4966;48.112;9.282;2023-05-20T06:25:12;9.52;;;5.00;;
9854;SDS011;4966;48.112;9.282;2023-05-20T06:27:38;9.85;;;5.38;;
9854;SDS011;4966;48.112;9.282;2023-05-20T06:30:03;8.98;;;5.30;;
9854;SDS011;4966;48.112;9.282;2023-05-20T06:32:29;6.55;;;4.03;;
9854;SDS011;4966;48.112;9.282;2023-05-20T06:34:54;13.27;;;5.78;;
9854;SDS011;4966;48.112;9.282;2023-05-20T06:37:19;9.20;;;5.32;;
9854;SDS011;4966;48.112;9.282;2023-05-20T06:39:48;13.88;;;6.35;;
9854;SDS011;4966;48.112;9.282;2023-05-20T06:42:17;9.20;;;5.65;;
9854;SDS011;4966;48.112;9.282;2023-05-20T06:44:43;11.25;;;6.18;;
9854;SDS011;4966;48.112;9.282;2023-05-20T06:47:08;11.38;;;6.15;;
9854;SDS011;4966;48.112;9.282;2023-05-20T06:49:33;10.27;;;6.00;;
9854;SDS011;4966;48.112;9.282;2023-05-20T06:51:59;12.52;;;5.90;;
9854;SDS011;4966;48.112;9.282;2023-05-20T06:54:24;11.27;;;5.70;;
9854;SDS011;4966;48.112;9.282;2023-05-20T06:56:49;15.85;;;6.75;;
9854;SDS011;4966;48.112;9.282;2023-05-20T06:59:15;12.32;;;6.35;;
9854;SDS011;4966;48.112;9.282;2023-05-20T07:01:40;11.15;;;6.32;;
9854;SDS011;4966;48.112;9.282;2023-05-20T07:04:05;10.30;;;5.90;;
9854;SDS011;4966;48.112;9.282;2023-05-20T07:06:31;13.55;;;6.13;;
9854;SDS011;4966;48.112;9.282;2023-05-20T07:08:56;13.20;;;6.55;;
9854;SDS011;4966;48.112;9.282;2023-05-20T07:11:21;10.88;;;5.88;;
9854;SDS011;4966;48.112;9.282;2023-05-20T07:13:47;12.40;;;6.32;;
9854;SDS011;4966;48.112;9.282;2023-05-20T07:16:12;16.65;;;7.28;;
9854;SDS011;4966;48.112;9.282;2023-05-20T07:18:37;12.68;;;7.07;;
9854;SDS011;4966;48.112;9.282;2023-05-20T07:21:03;13.98;;;7.68;;
9854;SDS011;4966;48.112;9.282;2023-05-20T07:23:28;12.75;;;7.25;;
9854;SDS011;4966;48.112;9.282;2023-05-20T07:25:54;19.30;;;7.72;;
9854;SDS011;4966;48.112;9.282;2023-05-20T07:28:19;12.98;;;7.82;;
9854;SDS011;4966;48.112;9.282;2023-05-20T07:30:45;14.55;;;8.07;;
9854;SDS011;4966;48.112;9.282;2023-05-20T07:35:39;15.77;;;8.07;;
9854;SDS011;4966;48.112;9.282;2023-05-20T07:38:05;12.73;;;7.45;;
9854;SDS011;4966;48.112;9.282;2023-05-20T07:40:30;15.77;;;6.65;;
9854;SDS011;4966;48.112;9.282;2023-05-20T07:42:55;17.52;;;8.13;;
9854;SDS011;4966;48.112;9.282;2023-05-20T07:45:21;11.50;;;6.40;;
9854;SDS011;4966;48.112;9.282;2023-05-20T07:47:46;14.82;;;7.55;;
9854;SDS011;4966;48.112;9.282;2023-05-20T07:50:11;12.07;;;6.78;;
9854;SDS011;4966;48.112;9.282;2023-05-20T07:52:37;15.45;;;7.45;;
9854;SDS011;4966;48.112;9.282;2023-05-20T07:55:03;13.82;;;7.43;;
9854;SDS011;4966;48.112;9.282;2023-05-20T07:57:29;12.45;;;6.57;;
9854;SDS011;4966;48.112;9.282;2023-05-20T07:59:54;11.57;;;6.65;;
9854;SDS011;4966;48.112;9.282;2023-05-20T08:02:20;11.18;;;6.50;;
9854;SDS011;4966;48.112;9.282;2023-05-20T08:04:45;10.70;;;5.55;;
9854;SDS011;4966;48.112;9.282;2023-05-20T08:07:10;10.15;;;5.60;;
9854;SDS011;4966;48.112;9.282;2023-05-20T08:09:36;11.82;;;6.35;;
9854;SDS011;4966;48.112;9.282;2023-05-20T08:12:01;13.40;;;6.60;;
9854;SDS011;4966;48.112;9.282;2023-05-20T08:14:26;12.13;;;6.78;;
9854;SDS011;4966;48.112;9.282;2023-05-20T08:16:52;16.45;;;6.60;;
9854;SDS011;4966;48.112;9.282;2023-05-20T08:19:17;11.65;;;6.70;;
9854;SDS011;4966;48.112;9.282;2023-05-20T08:21:43;12.98;;;6.28;;
9854;SDS011;4966;48.112;9.282;2023-05-20T08:24:08;12.25;;;6.97;;
9854;SDS011;4966;48.112;9.282;2023-05-20T08:26:33;10.65;;;6.78;;
9854;SDS011;4966;48.112;9.282;2023-05-20T08:28:59;13.18;;;7.25;;
9854;SDS011;4966;48.112;9.282;2023-05-20T08:31:24;12.90;;;7.68;;
9854;SDS011;4966;48.112;9.282;2023-05-20T08:33:50;13.00;;;7.57;;
9854;SDS011;4966;48.112;9.282;2023-05-20T08:36:16;16.20;;;8.07;;
9854;SDS011;4966;48.112;9.282;2023-05-20T08:38:43;19.77;;;9.20;;
9854;SDS011;4966;48.112;9.282;2023-05-20T08:41:08;16.50;;;9.50;;
9854;SDS011;4966;48.112;9.282;2023-05-20T08:43:33;15.23;;;8.88;;
9854;SDS011;4966;48.112;9.282;2023-05-20T08:45:59;13.95;;;8.40;;
9854;SDS011;4966;48.112;9.282;2023-05-20T08:48:29;15.88;;;9.27;;
9854;SDS011;4966;48.112;9.282;2023-05-20T08:50:56;13.40;;;9.00;;
9854;SDS011;4966;48.112;9.282;2023-05-20T08:53:22;14.18;;;9.40;;
9854;SDS011;4966;48.112;9.282;2023-05-20T08:55:51;14.00;;;7.70;;
9854;SDS011;4966;48.112;9.282;2023-05-20T08:58:19;12.63;;;8.02;;
9854;SDS011;4966;48.112;9.282;2023-05-20T09:00:46;14.05;;;7.80;;
9854;SDS011;4966;48.112;9.282;2023-05-20T09:03:11;13.90;;;7.90;;
9854;SDS011;4966;48.112;9.282;2023-05-20T09:05:36;14.32;;;6.68;;
9854;SDS011;4966;48.112;9.282;2023-05-20T09:08:08;11.50;;;6.57;;
9854;SDS011;4966;48.112;9.282;2023-05-20T09:10:35;11.15;;;7.03;;
9854;SDS011;4966;48.112;9.282;2023-05-20T09:13:03;12.43;;;7.00;;
9854;SDS011;4966;48.112;9.282;2023-05-20T09:15:30;11.98;;;6.88;;
9854;SDS011;4966;48.112;9.282;2023-05-20T09:17:59;15.43;;;7.85;;
9854;SDS011;4966;48.112;9.282;2023-05-20T09:20:29;11.63;;;7.38;;
9854;SDS011;4966;48.112;9.282;2023-05-20T09:23:00;13.15;;;7.70;;
9854;SDS011;4966;48.112;9.282;2023-05-20T09:25:28;11.25;;;7.05;;
9854;SDS011;4966;48.112;9.282;2023-05-20T09:27:53;11.77;;;7.22;;
9854;SDS011;4966;48.112;9.282;2023-05-20T09:30:19;9.63;;;6.30;;
9854;SDS011;4966;48.112;9.282;2023-05-20T09:32:52;13.05;;;7.47;;
9854;SDS011;4966;48.112;9.282;2023-05-20T09:35:19;9.82;;;5.72;;
9854;SDS011;4966;48.112;9.282;2023-05-20T09:37:46;11.75;;;6.95;;
9854;SDS011;4966;48.112;9.282;2023-05-20T09:40:12;8.85;;;5.85;;
9854;SDS011;4966;48.112;9.282;2023-05-20T09:45:25;10.43;;;6.95;;
9854;SDS011;4966;48.112;9.282;2023-05-20T09:47:51;11.15;;;6.57;;
9854;SDS011;4966;48.112;9.282;2023-05-20T09:50:18;11.02;;;6.68;;
9854;SDS011;4966;48.112;9.282;2023-05-20T09:52:48;11.00;;;7.10;;
9854;SDS011;4966;48.112;9.282;2023-05-20T09:55:15;9.48;;;7.07;;
9854;SDS011;4966;48.112;9.282;2023-05-20T09:57:45;9.32;;;6.00;;
9854;SDS011;4966;48.112;9.282;2023-05-20T10:00:11;9.43;;;6.07;;
9854;SDS011;4966;48.112;9.282;2023-05-20T10:02:40;10.07;;;5.97;;
9854;SDS011;4966;48.112;9.282;2023-05-20T10:05:13;9.48;;;6.45;;
9854;SDS011;4966;48.112;9.282;2023-05-20T10:10:44;9.10;;;5.80;;
9854;SDS011;4966;48.112;9.282;2023-05-20T10:13:24;8.82;;;5.28;;
9854;SDS011;4966;48.112;9.282;2023-05-20T10:16:23;8.43;;;5.60;;
9854;SDS011;4966;48.112;9.282;2023-05-20T10:19:26;8.35;;;5.50;;
9854;SDS011;4966;48.112;9.282;2023-05-20T10:22:00;8.27;;;5.60;;
9854;SDS011;4966;48.112;9.282;2023-05-20T10:24:29;13.15;;;6.72;;
9854;SDS011;4966;48.112;9.282;2023-05-20T10:27:00;8.30;;;5.57;;
9854;SDS011;4966;48.112;9.282;2023-05-20T10:29:26;9.35;;;6.03;;
9854;SDS011;4966;48.112;9.282;2023-05-20T10:31:52;9.93;;;5.72;;
9854;SDS011;4966;48.112;9.282;2023-05-20T10:34:19;8.52;;;5.43;;
9854;SDS011;4966;48.112;9.282;2023-05-20T10:37:06;8.15;;;5.15;;
9854;SDS011;4966;48.112;9.282;2023-05-20T10:39:31;10.60;;;5.82;;
9854;SDS011;4966;48.112;9.282;2023-05-20T10:42:07;12.52;;;5.93;;
9854;SDS011;4966;48.112;9.282;2023-05-20T10:44:40;9.98;;;5.90;;
9854;SDS011;4966;48.112;9.282;2023-05-20T10:47:06;7.15;;;4.82;;
9854;SDS011;4966;48.112;9.282;2023-05-20T10:49:34;7.30;;;4.88;;
9854;SDS011;4966;48.112;9.282;2023-05-20T10:52:05;9.95;;;5.40;;
9854;SDS011;4966;48.112;9.282;2023-05-20T10:54:34;9.93;;;5.70;;
9854;SDS011;4966;48.112;9.282;2023-05-20T10:57:00;9.48;;;5.47;;
9854;SDS011;4966;48.112;9.282;2023-05-20T10:59:33;7.70;;;4.57;;
9854;SDS011;4966;48.112;9.282;2023-05-20T11:02:00;8.65;;;5.75;;
9854;SDS011;4966;48.112;9.282;2023-05-20T11:04:27;6.72;;;5.03;;
9854;SDS011;4966;48.112;9.282;2023-05-20T11:06:53;8.30;;;5.85;;
9854;SDS011;4966;48.112;9.282;2023-05-20T11:09:19;8.38;;;5.25;;
9854;SDS011;4966;48.112;9.282;2023-05-20T11:11:45;10.27;;;5.32;;
9854;SDS011;4966;48.112;9.282;2023-05-20T11:14:10;14.07;;;5.43;;
9854;SDS011;4966;48.112;9.282;2023-05-20T11:16:38;10.95;;;5.70;;
9854;SDS011;4966;48.112;9.282;2023-05-20T11:19:07;8.80;;;5.97;;
9854;SDS011;4966;48.112;9.282;2023-05-20T11:21:33;10.10;;;5.75;;
9854;SDS011;4966;48.112;9.282;2023-05-20T11:23:58;7.05;;;5.18;;
9854;SDS011;4966;48.112;9.282;2023-05-20T11:26:24;7.95;;;5.28;;
9854;SDS011;4966;48.112;9.282;2023-05-20T11:28:49;8.82;;;5.22;;
9854;SDS011;4966;48.112;9.282;2023-05-20T11:31:15;8.00;;;5.22;;
9854;SDS011;4966;48.112;9.282;2023-05-20T11:33:42;8.18;;;5.22;;
9854;SDS011;4966;48.112;9.282;2023-05-20T11:36:08;6.85;;;5.00;;
9854;SDS011;4966;48.112;9.282;2023-05-20T11:38:34;7.10;;;5.57;;
9854;SDS011;4966;48.112;9.282;2023-05-20T11:40:59;6.53;;;5.03;;
9854;SDS011;4966;48.112;9.282;2023-05-20T11:43:24;7.95;;;5.60;;
9854;SDS011;4966;48.112;9.282;2023-05-20T11:45:53;7.57;;;4.90;;
9854;SDS011;4966;48.112;9.282;2023-05-20T11:48:20;8.98;;;5.10;;
9854;SDS011;4966;48.112;9.282;2023-05-20T11:50:45;6.82;;;5.07;;
9854;SDS011;4966;48.112;9.282;2023-05-20T11:53:16;7.72;;;5.50;;
9854;SDS011;4966;48.112;9.282;2023-05-20T11:55:53;7.05;;;5.47;;
9854;SDS011;4966;48.112;9.282;2023-05-20T11:58:20;8.27;;;6.20;;
9854;SDS011;4966;48.112;9.282;2023-05-20T12:00:47;9.27;;;6.35;;
9854;SDS011;4966;48.112;9.282;2023-05-20T12:03:13;8.02;;;5.35;;
9854;SDS011;4966;48.112;9.282;2023-05-20T12:05:38;7.18;;;5.22;;
9854;SDS011;4966;48.112;9.282;2023-05-20T12:08:04;7.22;;;5.20;;
9854;SDS011;4966;48.112;9.282;2023-05-20T12:10:30;10.30;;;5.90;;
9854;SDS011;4966;48.112;9.282;2023-05-20T12:12:56;7.72;;;5.47;;
9854;SDS011;4966;48.112;9.282;2023-05-20T12:15:22;9.13;;;5.57;;
9854;SDS011;4966;48.112;9.282;2023-05-20T12:17:48;10.48;;;5.93;;
9854;SDS011;4966;48.112;9.282;2023-05-20T12:20:17;7.30;;;5.82;;
9854;SDS011;4966;48.112;9.282;2023-05-20T12:22:46;8.68;;;6.20;;
9854;SDS011;4966;48.112;9.282;2023-05-20T12:25:12;10.98;;;6.20;;
9854;SDS011;4966;48.112;9.282;2023-05-20T12:27:43;8.43;;;5.80;;
9854;SDS011;4966;48.112;9.282;2023-05-20T12:30:15;8.02;;;5.50;;
9854;SDS011;4966;48.112;9.282;2023-05-20T12:32:42;7.35;;;5.38;;
9854;SDS011;4966;48.112;9.282;2023-05-20T12:35:08;9.50;;;5.65;;
9854;SDS011;4966;48.112;9.282;2023-05-20T12:37:35;8.73;;;5.57;;
9854;SDS011;4966;48.112;9.282;2023-05-20T12:40:02;7.43;;;4.90;;
9854;SDS011;4966;48.112;9.282;2023-05-20T12:42:32;8.82;;;5.60;;
9854;SDS011;4966;48.112;9.282;2023-05-20T12:45:04;8.30;;;5.15;;
9854;SDS011;4966;48.112;9.282;2023-05-20T12:47:31;7.47;;;4.57;;
9854;SDS011;4966;48.112;9.282;2023-05-20T12:49:57;9.38;;;4.75;;
9854;SDS011;4966;48.112;9.282;2023-05-20T12:52:22;7.45;;;5.22;;
9854;SDS011;4966;48.112;9.282;2023-05-20T12:54:47;7.20;;;5.28;;
9854;SDS011;4966;48.112;9.282;2023-05-20T12:57:13;6.15;;;4.38;;
9854;SDS011;4966;48.112;9.282;2023-05-20T12:59:38;7.10;;;4.65;;
9854;SDS011;4966;48.112;9.282;2023-05-20T13:02:03;7.25;;;4.72;;
9854;SDS011;4966;48.112;9.282;2023-05-20T13:04:29;7.40;;;4.70;;
9854;SDS011;4966;48.112;9.282;2023-05-20T13:06:54;6.63;;;4.22;;
9854;SDS011;4966;48.112;9.282;2023-05-20T13:09:20;9.45;;;4.90;;
9854;SDS011;4966;48.112;9.282;2023-05-20T13:11:45;7.07;;;4.53;;
9854;SDS011;4966;48.112;9.282;2023-05-20T13:14:10;7.20;;;4.28;;
9854;SDS011;4966;48.112;9.282;2023-05-20T13:16:36;7.35;;;4.93;;
9854;SDS011;4966;48.112;9.282;2023-05-20T13:19:02;6.43;;;4.20;;
9854;SDS011;4966;48.112;9.282;2023-05-20T13:21:27;5.88;;;4.10;;
9854;SDS011;4966;48.112;9.282;2023-05-20T13:23:52;5.53;;;4.15;;
9854;SDS011;4966;48.112;9.282;2023-05-20T13:26:17;6.90;;;3.67;;
9854;SDS011;4966;48.112;9.282;2023-05-20T13:28:43;5.88;;;4.00;;
9854;SDS011;4966;48.112;9.282;2023-05-20T13:31:08;5.60;;;4.13;;
9854;SDS011;4966;48.112;9.282;2023-05-20T13:33:33;9.38;;;4.43;;
9854;SDS011;4966;48.112;9.282;2023-05-20T13:35:59;7.82;;;4.45;;
9854;SDS011;4966;48.112;9.282;2023-05-20T13:38:24;6.25;;;3.80;;
9854;SDS011;4966;48.112;9.282;2023-05-20T13:40:49;6.07;;;3.70;;
9854;SDS011;4966;48.112;9.282;2023-05-20T13:43:15;7.20;;;4.47;;
9854;SDS011;4966;48.112;9.282;2023-05-20T13:45:41;7.07;;;3.97;;
9854;SDS011;4966;48.112;9.282;2023-05-20T13:48:06;4.90;;;3.67;;
9854;SDS011;4966;48.112;9.282;2023-05-20T13:50:32;6.80;;;4.18;;
9854;SDS011;4966;48.112;9.282;2023-05-20T13:52:57;8.05;;;5.93;;
9854;SDS011;4966;48.112;9.282;2023-05-20T13:55:22;6.10;;;3.60;;
9854;SDS011;4966;48.112;9.282;2023-05-20T13:57:48;6.53;;;4.60;;
9854;SDS011;4966;48.112;9.282;2023-05-20T14:00:13;11.18;;;7.97;;
9854;SDS011;4966;48.112;9.282;2023-05-20T14:02:39;7.88;;;5.25;;
9854;SDS011;4966;48.112;9.282;2023-05-20T14:05:05;6.82;;;3.95;;
9854;SDS011;4966;48.112;9.282;2023-05-20T14:07:31;6.10;;;4.53;;
9854;SDS011;4966;48.112;9.282;2023-05-20T14:09:57;6.85;;;4.03;;
9854;SDS011;4966;48.112;9.282;2023-05-20T14:12:22;7.35;;;4.10;;
9854;SDS011;4966;48.112;9.282;2023-05-20T14:14:48;4.88;;;3.63;;
9854;SDS011;4966;48.112;9.282;2023-05-20T14:17:13;9.63;;;4.35;;
9854;SDS011;4966;48.112;9.282;2023-05-20T14:19:39;5.43;;;3.78;;
9854;SDS011;4966;48.112;9.282;2023-05-20T14:22:04;5.45;;;3.25;;
9854;SDS011;4966;48.112;9.282;2023-05-20T14:24:30;5.90;;;3.80;;
9854;SDS011;4966;48.112;9.282;2023-05-20T14:26:55;5.03;;;3.35;;
9854;SDS011;4966;48.112;9.282;2023-05-20T14:29:20;5.22;;;3.45;;
9854;SDS011;4966;48.112;9.282;2023-05-20T14:31:46;7.03;;;3.30;;
9854;SDS011;4966;48.112;9.282;2023-05-20T14:34:11;5.85;;;3.65;;
9854;SDS011;4966;48.112;9.282;2023-05-20T14:36:36;5.05;;;3.10;;
9854;SDS011;4966;48.112;9.282;2023-05-20T14:39:02;5.05;;;3.60;;
9854;SDS011;4966;48.112;9.282;2023-05-20T14:41:29;4.88;;;3.25;;
9854;SDS011;4966;48.112;9.282;2023-05-20T14:43:54;6.70;;;3.17;;
9854;SDS011;4966;48.112;9.282;2023-05-20T14:46:19;4.40;;;3.38;;
9854;SDS011;4966;48.112;9.282;2023-05-20T14:48:45;8.85;;;3.53;;
9854;SDS011;4966;48.112;9.282;2023-05-20T14:51:11;5.00;;;3.10;;
9854;SDS011;4966;48.112;9.282;2023-05-20T14:53:36;5.53;;;3.33;;
9854;SDS011;4966;48.112;9.282;2023-05-20T14:56:01;5.80;;;3.15;;
9854;SDS011;4966;48.112;9.282;2023-05-20T14:58:27;6.65;;;3.20;;
9854;SDS011;4966;48.112;9.282;2023-05-20T15:00:52;5.43;;;2.90;;
9854;SDS011;4966;48.112;9.282;2023-05-20T15:03:17;4.32;;;3.28;;
9854;SDS011;4966;48.112;9.282;2023-05-20T15:05:43;7.10;;;3.42;;
9854;SDS011;4966;48.112;9.282;2023-05-20T15:08:08;4.13;;;2.95;;
9854;SDS011;4966;48.112;9.282;2023-05-20T15:10:34;6.53;;;3.50;;
9854;SDS011;4966;48.112;9.282;2023-05-20T15:12:59;4.70;;;3.67;;
9854;SDS011;4966;48.112;9.282;2023-05-20T15:15:25;4.13;;;3.13;;